createdAt,value
2018-05-04T00:02:23.241Z,74.40
2018-05-04T00:04:51.525Z,74.40
2018-05-04T00:07:19.045Z,74.30
2018-05-04T00:09:48.086Z,73.90
2018-05-04T00:12:15.640Z,73.80
2018-05-04T00:14:43.921Z,74.00
2018-05-04T00:17:11.461Z,73.90
2018-05-04T00:19:39.729Z,75.60
2018-05-04T00:22:08.018Z,75.10
2018-05-04T00:24:36.317Z,75.30
2018-05-04T00:27:03.835Z,75.30
2018-05-04T00:29:32.123Z,75.20
2018-05-04T00:32:00.415Z,75.30
2018-05-04T00:34:27.940Z,75.20
2018-05-04T00:36:56.238Z,75.00
2018-05-04T00:39:24.521Z,74.90
2018-05-04T00:41:52.086Z,74.80
2018-05-04T00:44:19.604Z,74.70
2018-05-04T00:46:47.125Z,74.60
2018-05-04T00:49:14.641Z,74.50
2018-05-04T00:51:42.929Z,74.50
2018-05-04T00:54:23.161Z,74.80
2018-05-04T00:56:50.674Z,74.80
2018-05-04T00:59:18.197Z,75.30
2018-05-04T01:01:46.479Z,76.00
2018-05-04T01:04:14.766Z,76.20
2018-05-04T01:06:42.318Z,76.20
2018-05-04T01:09:10.593Z,76.00
2018-05-04T01:11:38.868Z,76.00
2018-05-04T01:14:07.153Z,75.80
2018-05-04T01:16:35.435Z,75.40
2018-05-04T01:19:02.966Z,75.30
2018-05-04T01:21:31.244Z,75.30
2018-05-04T01:23:59.521Z,75.10
2018-05-04T01:26:27.814Z,75.60
2018-05-04T01:28:55.345Z,75.00
2018-05-04T01:31:23.636Z,74.30
2018-05-04T01:33:51.922Z,74.10
2018-05-04T01:36:20.212Z,74.10
2018-05-04T01:38:47.727Z,74.10
2018-05-04T01:41:15.246Z,73.90
2018-05-04T01:43:42.768Z,73.70
2018-05-04T01:46:11.054Z,73.50
2018-05-04T01:48:39.330Z,73.50
2018-05-04T01:51:07.612Z,73.40
2018-05-04T01:53:35.133Z,73.20
2018-05-04T01:56:02.658Z,73.30
2018-05-04T01:58:30.173Z,73.40
2018-05-04T02:00:58.477Z,73.20
2018-05-04T02:03:25.989Z,73.10
2018-05-04T02:05:53.519Z,72.80
2018-05-04T02:08:21.034Z,72.70
2018-05-04T02:10:49.312Z,72.50
2018-05-04T02:13:17.601Z,72.60
2018-05-04T02:15:45.110Z,72.50
2018-05-04T02:18:14.138Z,72.10
2018-05-04T02:20:42.428Z,71.70
2018-05-04T02:23:09.954Z,71.60
2018-05-04T02:25:38.982Z,71.60
2018-05-04T02:28:06.497Z,71.60
2018-05-04T02:30:34.011Z,71.80
2018-05-04T02:33:01.530Z,71.80
2018-05-04T02:35:29.830Z,72.30
2018-05-04T02:37:57.366Z,72.20
2018-05-04T02:40:25.649Z,72.70
2018-05-04T02:42:53.938Z,72.60
2018-05-04T02:45:22.226Z,72.40
2018-05-04T02:47:49.754Z,72.30
2018-05-04T02:50:18.037Z,72.80
2018-05-04T02:52:46.354Z,72.80
2018-05-04T02:55:13.875Z,72.70
2018-05-04T02:57:42.161Z,73.60
2018-05-04T03:00:10.446Z,73.50
2018-05-04T03:02:37.986Z,73.50
2018-05-04T03:05:06.277Z,73.80
2018-05-04T03:07:34.565Z,73.80
2018-05-04T03:10:02.105Z,73.80
2018-05-04T03:12:30.413Z,74.10
2018-05-04T03:14:57.937Z,74.10
2018-05-04T03:17:26.218Z,73.90
2018-05-04T03:19:54.509Z,73.80
2018-05-04T03:22:22.025Z,73.80
2018-05-04T03:24:49.549Z,74.00
2018-05-04T03:27:17.069Z,73.80
2018-05-04T03:29:45.358Z,73.60
2018-05-04T03:32:12.877Z,73.50
2018-05-04T03:34:40.410Z,73.60
2018-05-04T03:37:07.932Z,73.40
2018-05-04T03:39:35.455Z,73.10
2018-05-04T03:42:02.985Z,73.10
2018-05-04T03:44:30.497Z,73.10
2018-05-04T03:46:58.773Z,73.40
2018-05-04T03:49:27.068Z,73.50
2018-05-04T03:51:54.589Z,73.40
2018-05-04T03:54:22.117Z,73.30
2018-05-04T03:56:49.639Z,73.40
2018-05-04T03:59:29.149Z,73.90
2018-05-04T04:02:08.598Z,74.40
2018-05-04T04:04:36.893Z,75.00
2018-05-04T04:07:04.409Z,74.90
2018-05-04T04:09:31.937Z,75.50
2018-05-04T04:11:59.469Z,75.40
2018-05-04T04:14:27.760Z,76.00
2018-05-04T04:16:55.275Z,75.90
2018-05-04T04:19:22.801Z,76.10
2018-05-04T04:21:50.318Z,76.40
2018-05-04T04:24:18.598Z,76.00
2018-05-04T04:26:46.890Z,75.30
2018-05-04T04:29:14.405Z,75.30
2018-05-04T04:31:41.929Z,75.50
2018-05-04T04:34:09.441Z,75.80
2018-05-04T04:36:37.730Z,76.30
2018-05-04T04:39:05.254Z,76.30
2018-05-04T04:41:32.781Z,75.90
2018-05-04T04:44:00.309Z,75.50
2018-05-04T04:46:27.830Z,75.50
2018-05-04T04:48:55.769Z,75.80
2018-05-04T04:51:23.637Z,76.00
2018-05-04T04:53:51.166Z,76.30
2018-05-04T04:56:18.714Z,76.60
2018-05-04T04:58:47.017Z,76.80
2018-05-04T05:01:14.541Z,76.80
2018-05-04T05:03:42.825Z,76.50
2018-05-04T05:06:11.121Z,76.40
2018-05-04T05:08:38.642Z,76.30
2018-05-04T05:11:06.230Z,76.50
2018-05-04T05:13:33.849Z,76.80
2018-05-04T05:16:01.280Z,76.50
2018-05-04T05:18:28.870Z,76.40
2018-05-04T05:20:56.339Z,76.30
2018-05-04T05:23:24.627Z,75.80
2018-05-04T05:25:52.914Z,76.10
2018-05-04T05:28:21.205Z,75.90
2018-05-04T05:30:48.734Z,75.80
2018-05-04T05:33:17.021Z,75.50
2018-05-04T05:35:45.310Z,75.50
2018-05-04T05:38:12.822Z,75.40
2018-05-04T05:40:41.118Z,76.00
2018-05-04T05:43:09.422Z,75.60
2018-05-04T05:45:36.938Z,75.10
2018-05-04T05:48:04.459Z,75.00
2018-05-04T05:50:31.981Z,75.30
2018-05-04T05:53:00.269Z,75.80
2018-05-04T05:55:27.785Z,75.70
2018-05-04T05:57:55.315Z,75.90
2018-05-04T06:00:22.834Z,75.90
2018-05-04T06:02:51.119Z,75.70
2018-05-04T06:05:20.113Z,76.00
2018-05-04T06:07:48.397Z,76.20
2018-05-04T06:10:15.925Z,76.20
2018-05-04T06:12:43.541Z,76.00
2018-05-04T06:15:11.073Z,76.80
2018-05-04T06:17:38.597Z,76.70
2018-05-04T06:20:06.889Z,76.60
2018-05-04T06:22:35.181Z,76.30
2018-05-04T06:25:03.490Z,76.20
2018-05-04T06:27:31.009Z,76.30
2018-05-04T06:29:59.290Z,75.80
2018-05-04T06:32:27.586Z,75.60
2018-05-04T06:34:55.117Z,75.60
2018-05-04T06:37:23.415Z,75.90
2018-05-04T06:39:50.961Z,75.70
2018-05-04T06:42:19.253Z,75.40
2018-05-04T06:44:46.775Z,75.30
2018-05-04T06:47:14.301Z,75.20
2018-05-04T06:49:41.819Z,75.20
2018-05-04T06:52:10.105Z,75.00
2018-05-04T06:54:37.625Z,75.00
2018-05-04T06:57:05.151Z,75.30
2018-05-04T06:59:32.663Z,75.60
2018-05-04T07:02:00.954Z,75.30
2018-05-04T07:04:28.469Z,75.20
2018-05-04T07:06:55.997Z,75.60
2018-05-04T07:09:23.508Z,75.90
2018-05-04T07:11:51.038Z,75.70
2018-05-04T07:14:18.573Z,75.00
2018-05-04T07:16:46.085Z,74.80
2018-05-04T07:19:14.382Z,75.20
2018-05-04T07:21:42.654Z,76.30
2018-05-04T07:24:10.937Z,76.00
2018-05-04T07:26:38.478Z,76.00
2018-05-04T07:29:07.676Z,75.30
2018-05-04T07:31:35.969Z,74.70
2018-05-04T07:34:03.514Z,74.60
2018-05-04T07:36:31.803Z,75.20
2018-05-04T07:38:59.338Z,75.00
2018-05-04T07:41:27.630Z,74.90
2018-05-04T07:43:55.918Z,74.40
2018-05-04T07:46:24.206Z,74.40
2018-05-04T07:48:51.733Z,74.40
2018-05-04T07:51:20.018Z,73.60
2018-05-04T07:53:48.319Z,73.00
2018-05-04T07:56:36.505Z,72.90
2018-05-04T07:59:04.046Z,72.70
2018-05-04T08:01:31.566Z,72.90
2018-05-04T08:03:59.850Z,74.30
2018-05-04T08:06:27.365Z,74.20
2018-05-04T08:08:54.893Z,74.80
2018-05-04T08:11:22.413Z,75.00
2018-05-04T08:13:50.699Z,73.50
2018-05-04T08:16:18.221Z,73.50
2018-05-04T08:18:46.501Z,72.30
2018-05-04T08:21:14.087Z,72.30
2018-05-04T08:23:42.366Z,72.10
2018-05-04T08:26:10.660Z,70.70
2018-05-04T08:28:38.174Z,70.70
2018-05-04T08:31:05.693Z,71.60
2018-05-04T08:33:33.210Z,71.30
2018-05-04T08:36:01.502Z,69.60
2018-05-04T08:38:29.021Z,69.60
2018-05-04T08:40:56.531Z,69.80
2018-05-04T08:43:24.046Z,70.40
2018-05-04T08:45:51.560Z,69.70
2018-05-04T08:48:19.094Z,70.10
2018-05-04T08:50:47.424Z,69.80
2018-05-04T08:53:14.910Z,69.80
2018-05-04T08:55:43.234Z,68.70
2018-05-04T08:58:10.753Z,68.80
2018-05-04T09:00:39.031Z,69.40
2018-05-04T09:03:07.321Z,70.00
2018-05-04T09:05:34.904Z,70.00
2018-05-04T09:08:03.877Z,70.50
2018-05-04T09:10:31.392Z,70.50
2018-05-04T09:12:58.914Z,70.90
2018-05-04T09:15:26.426Z,70.00
2018-05-04T09:17:53.942Z,69.90
2018-05-04T09:20:21.459Z,70.00
2018-05-04T09:22:49.746Z,70.60
2018-05-04T09:25:17.354Z,70.50
2018-05-04T09:27:45.565Z,69.90
2018-05-04T09:30:13.855Z,68.80
2018-05-04T09:32:41.378Z,68.80
2018-05-04T09:35:08.897Z,69.10
2018-05-04T09:37:36.405Z,69.50
2018-05-04T09:40:03.933Z,69.10
2018-05-04T09:42:31.447Z,69.00
2018-05-04T09:44:59.732Z,68.10
2018-05-04T09:47:27.246Z,68.10
2018-05-04T09:49:55.538Z,66.40
2018-05-04T09:52:23.050Z,66.50
2018-05-04T09:54:50.562Z,65.90
2018-05-04T09:57:18.849Z,65.20
2018-05-04T09:59:47.130Z,64.30
2018-05-04T10:02:15.410Z,64.00
2018-05-04T10:04:42.927Z,63.90
2018-05-04T10:07:11.213Z,64.10
2018-05-04T10:09:38.729Z,64.10
2018-05-04T10:12:06.269Z,64.70
2018-05-04T10:14:33.794Z,63.70
2018-05-04T10:17:01.318Z,63.70
2018-05-04T10:19:28.836Z,63.60
2018-05-04T10:21:57.190Z,63.00
2018-05-04T10:24:24.653Z,62.90
2018-05-04T10:26:52.941Z,62.20
2018-05-04T10:29:21.214Z,62.10
2018-05-04T10:31:49.499Z,62.20
2018-05-04T10:34:17.028Z,62.10
2018-05-04T10:36:44.560Z,63.00
2018-05-04T10:39:12.079Z,62.30
2018-05-04T10:41:39.606Z,61.90
2018-05-04T10:44:07.123Z,61.60
2018-05-04T10:46:34.637Z,61.60
2018-05-04T10:49:02.922Z,62.50
2018-05-04T10:51:31.197Z,62.00
2018-05-04T10:53:59.484Z,60.90
2018-05-04T10:56:27.760Z,60.70
2018-05-04T10:58:55.277Z,60.70
2018-05-04T11:01:22.798Z,61.70
2018-05-04T11:03:50.323Z,62.10
2018-05-04T11:06:18.602Z,59.40
2018-05-04T11:08:46.886Z,59.00
2018-05-04T11:11:14.406Z,59.00
2018-05-04T11:13:41.913Z,59.50
2018-05-04T11:16:09.425Z,59.10
2018-05-04T11:18:38.451Z,60.80
2018-05-04T11:21:06.734Z,59.20
2018-05-04T11:23:34.254Z,59.10
2018-05-04T11:26:03.279Z,57.80
2018-05-04T11:28:31.554Z,58.00
2018-05-04T11:30:59.838Z,58.30
2018-05-04T11:33:28.117Z,58.10
2018-05-04T11:35:56.405Z,56.90
2018-05-04T11:38:23.918Z,56.80
2018-05-04T11:40:51.445Z,57.00
2018-05-04T11:43:18.991Z,55.80
2018-05-04T11:45:46.510Z,55.90
2018-05-04T11:48:14.785Z,56.50
2018-05-04T11:50:43.073Z,55.60
2018-05-04T11:53:11.358Z,56.10
2018-05-04T11:55:38.877Z,56.10
2018-05-04T11:58:06.388Z,56.70
2018-05-04T12:00:33.913Z,56.40
2018-05-04T12:03:02.198Z,56.30
2018-05-04T12:05:30.497Z,56.50
2018-05-04T12:07:58.017Z,56.40
2018-05-04T12:10:25.534Z,56.40
2018-05-04T12:12:53.042Z,56.60
2018-05-04T12:15:21.326Z,55.50
2018-05-04T12:17:49.610Z,56.00
2018-05-04T12:20:17.885Z,56.10
2018-05-04T12:22:46.229Z,55.20
2018-05-04T12:25:13.686Z,55.10
2018-05-04T12:27:41.205Z,55.30
2018-05-04T12:30:08.720Z,55.00
2018-05-04T12:32:36.243Z,55.40
2018-05-04T12:35:03.755Z,55.50
2018-05-04T12:37:32.029Z,56.30
2018-05-04T12:40:00.309Z,55.50
2018-05-04T12:42:28.586Z,54.90
2018-05-04T12:44:56.862Z,55.50
2018-05-04T12:47:25.138Z,53.50
2018-05-04T12:49:53.418Z,54.60
2018-05-04T12:52:21.694Z,53.50
2018-05-04T12:54:49.969Z,52.30
2018-05-04T12:57:18.255Z,51.20
2018-05-04T12:59:45.765Z,51.10
2018-05-04T13:02:13.289Z,50.40
2018-05-04T13:04:40.813Z,49.60
2018-05-04T13:07:09.097Z,47.90
2018-05-04T13:09:37.395Z,47.50
2018-05-04T13:12:04.907Z,47.50
2018-05-04T13:14:32.426Z,48.10
2018-05-04T13:16:59.935Z,46.30
2018-05-04T13:19:28.220Z,46.90
2018-05-04T13:21:56.501Z,48.40
2018-05-04T13:24:24.774Z,47.20
2018-05-04T13:26:53.050Z,48.30
2018-05-04T13:29:21.341Z,47.70
2018-05-04T13:31:48.945Z,47.70
2018-05-04T13:34:16.453Z,48.90
2018-05-04T13:36:44.726Z,46.80
2018-05-04T13:39:13.001Z,47.30
2018-05-04T13:41:41.281Z,46.40
2018-05-04T13:44:09.565Z,47.00
2018-05-04T13:46:37.077Z,46.90
2018-05-04T13:49:04.601Z,45.80
2018-05-04T13:51:32.179Z,44.90
2018-05-04T13:54:00.414Z,46.60
2018-05-04T13:56:28.694Z,45.30
2018-05-04T13:58:56.969Z,45.60
2018-05-04T14:01:25.253Z,44.60
2018-05-04T14:03:52.809Z,44.60
2018-05-04T14:06:20.299Z,43.50
2018-05-04T14:08:47.814Z,43.30
2018-05-04T14:11:16.097Z,42.90
2018-05-04T14:13:43.658Z,42.80
2018-05-04T14:16:11.136Z,43.40
2018-05-04T14:18:38.653Z,43.20
2018-05-04T14:21:06.173Z,43.10
2018-05-04T14:23:33.681Z,44.70
2018-05-04T14:26:01.979Z,44.00
2018-05-04T14:28:29.493Z,44.00
2018-05-04T14:30:57.015Z,43.50
2018-05-04T14:33:24.535Z,44.20
2018-05-04T14:35:52.825Z,43.00
2018-05-04T14:38:20.337Z,43.00
2018-05-04T14:40:47.849Z,43.50
2018-05-04T14:43:15.365Z,43.20
2018-05-04T14:45:42.878Z,43.50
2018-05-04T14:48:10.539Z,42.40
2018-05-04T14:50:38.086Z,41.50
2018-05-04T14:53:05.594Z,41.10
2018-05-04T14:55:33.122Z,40.80
2018-05-04T14:58:00.630Z,42.60
2018-05-04T15:00:28.950Z,42.30
2018-05-04T15:02:56.473Z,42.30
2018-05-04T15:05:24.754Z,41.20
2018-05-04T15:07:53.034Z,41.20
2018-05-04T15:10:21.334Z,40.50
2018-05-04T15:12:48.846Z,40.40
2018-05-04T15:15:16.360Z,39.80
2018-05-04T15:17:43.873Z,39.90
2018-05-04T15:20:12.165Z,39.60
2018-05-04T15:22:40.454Z,39.40
2018-05-04T15:25:07.966Z,39.30
2018-05-04T15:27:35.485Z,41.10
2018-05-04T15:30:03.027Z,38.70
2018-05-04T15:32:31.305Z,38.90
2018-05-04T15:34:58.821Z,38.90
2018-05-04T15:37:26.344Z,39.40
2018-05-04T15:39:53.968Z,40.20
2018-05-04T15:42:22.158Z,41.00
2018-05-04T15:44:49.676Z,41.00
2018-05-04T15:47:17.203Z,40.10
2018-05-04T15:49:44.721Z,42.00
2018-05-04T15:52:13.006Z,41.80
2018-05-04T15:54:40.599Z,41.70
2018-05-04T15:57:08.846Z,43.00
2018-05-04T15:59:36.357Z,42.90
2018-05-04T16:02:03.869Z,43.60
2018-05-04T16:04:31.382Z,44.00
2018-05-04T16:06:58.897Z,45.10
2018-05-04T16:09:26.429Z,46.30
2018-05-04T16:11:54.713Z,47.50
2018-05-04T16:14:22.234Z,47.50
2018-05-04T16:16:49.741Z,47.10
2018-05-04T16:19:17.261Z,46.60
2018-05-04T16:21:44.774Z,47.20
2018-05-04T16:24:12.289Z,47.80
2018-05-04T16:26:40.569Z,48.20
2018-05-04T16:29:08.854Z,48.30
2018-05-04T16:31:37.138Z,48.90
2018-05-04T16:34:04.645Z,48.90
2018-05-04T16:36:32.158Z,49.10
2018-05-04T16:38:59.697Z,50.20
2018-05-04T16:41:27.970Z,50.90
2018-05-04T16:43:56.967Z,50.10
2018-05-04T16:46:31.003Z,49.20
2018-05-04T16:49:04.155Z,49.10
2018-05-04T16:51:31.677Z,49.20
2018-05-04T16:53:59.185Z,49.80
2018-05-04T16:56:27.477Z,51.40
2018-05-04T16:58:55.774Z,52.00
2018-05-04T17:01:23.296Z,52.00
2018-05-04T17:03:51.580Z,52.60
2018-05-04T17:06:19.919Z,53.30
2018-05-04T17:08:47.399Z,53.30
2018-05-04T17:11:14.925Z,53.60
2018-05-04T17:13:42.433Z,54.10
2018-05-04T17:16:10.840Z,54.80
2018-05-04T17:18:38.350Z,54.80
2018-05-04T17:21:05.861Z,54.80
2018-05-04T17:23:33.373Z,54.90
2018-05-04T17:26:01.661Z,55.60
2018-05-04T17:28:29.949Z,55.70
2018-05-04T17:30:58.237Z,56.40
2018-05-04T17:33:25.762Z,56.40
2018-05-04T17:35:53.283Z,57.00
2018-05-04T17:38:20.810Z,57.70
2018-05-04T17:40:48.325Z,57.60
2018-05-04T17:43:15.425Z,57.10
2018-05-04T17:45:42.954Z,57.40
2018-05-04T17:48:11.238Z,57.60
2018-05-04T17:50:39.519Z,57.90
2018-05-04T17:53:07.797Z,58.10
2018-05-04T17:55:36.082Z,58.30
2018-05-04T17:58:03.602Z,58.20
2018-05-04T18:00:32.625Z,58.60
2018-05-04T18:03:00.963Z,58.30
2018-05-04T18:05:28.495Z,58.30
2018-05-04T18:07:56.017Z,58.00
2018-05-04T18:10:24.305Z,58.10
2018-05-04T18:12:51.818Z,58.10
2018-05-04T18:15:19.349Z,58.00
2018-05-04T18:17:46.866Z,58.00
2018-05-04T18:20:15.144Z,58.60
2018-05-04T18:22:43.441Z,58.80
2018-05-04T18:25:10.961Z,58.80
2018-05-04T18:27:38.485Z,59.30
2018-05-04T18:30:06.006Z,59.70
2018-05-04T18:32:34.304Z,59.80
2018-05-04T18:35:01.842Z,59.80
2018-05-04T18:37:30.117Z,59.30
2018-05-04T18:39:58.405Z,59.50
2018-05-04T18:42:25.933Z,59.40
2018-05-04T18:44:53.456Z,59.70
2018-05-04T18:47:20.986Z,59.70
2018-05-04T18:49:48.513Z,59.90
2018-05-04T18:52:16.029Z,60.10
2018-05-04T18:54:43.543Z,60.20
2018-05-04T18:57:11.833Z,60.90
2018-05-04T18:59:39.345Z,61.60
2018-05-04T19:02:06.882Z,60.90
2018-05-04T19:04:34.406Z,61.60
2018-05-04T19:07:01.930Z,61.30
2018-05-04T19:09:30.954Z,60.80
2018-05-04T19:11:59.237Z,60.70
2018-05-04T19:14:26.798Z,60.70
2018-05-04T19:16:54.309Z,61.30
2018-05-04T19:19:22.618Z,62.30
2018-05-04T19:21:50.908Z,62.60
2018-05-04T19:24:18.425Z,62.50
2018-05-04T19:26:45.950Z,62.60
2018-05-04T19:29:13.545Z,62.60
2018-05-04T19:31:41.770Z,62.40
2018-05-04T19:34:09.317Z,62.40
2018-05-04T19:36:37.597Z,62.40
2018-05-04T19:39:05.113Z,62.30
2018-05-04T19:41:33.424Z,62.50
2018-05-04T19:44:01.740Z,63.00
2018-05-04T19:46:29.245Z,62.90
2018-05-04T19:48:56.847Z,63.30
2018-05-04T19:51:24.361Z,63.60
2018-05-04T19:53:51.872Z,63.60
2018-05-04T19:56:19.389Z,63.90
2018-05-04T19:58:47.779Z,63.90
2018-05-04T20:01:15.960Z,64.20
2018-05-04T20:03:43.479Z,64.20
2018-05-04T20:06:11.025Z,64.40
2018-05-04T20:08:38.542Z,64.60
2018-05-04T20:11:06.064Z,64.30
2018-05-04T20:13:34.365Z,65.00
2018-05-04T20:16:02.652Z,65.10
2018-05-04T20:18:30.173Z,65.10
2018-05-04T20:20:59.207Z,65.30
2018-05-04T20:23:26.731Z,65.30
2018-05-04T20:25:54.253Z,65.50
2018-05-04T20:28:21.771Z,65.80
2018-05-04T20:30:50.061Z,66.80
2018-05-04T20:33:17.581Z,66.70
2018-05-04T20:35:45.869Z,66.60
2018-05-04T20:38:14.162Z,66.60
2018-05-04T20:40:42.455Z,66.50
2018-05-04T20:43:09.985Z,66.50
2018-05-04T20:45:38.267Z,66.20
2018-05-04T20:48:06.571Z,66.10
2018-05-04T20:50:34.087Z,66.10
2018-05-04T20:53:02.373Z,66.00
2018-05-04T20:55:30.666Z,65.90
2018-05-04T20:57:58.194Z,65.90
2018-05-04T21:00:27.218Z,66.10
2018-05-04T21:02:55.497Z,66.40
2018-05-04T21:05:23.788Z,66.60
2018-05-04T21:07:51.321Z,66.70
2018-05-04T21:10:19.597Z,66.40
2018-05-04T21:12:47.877Z,66.30
2018-05-04T21:15:16.185Z,66.60
2018-05-04T21:17:43.715Z,67.40
2018-05-04T21:20:12.010Z,66.80
2018-05-04T21:22:39.522Z,66.80
2018-05-04T21:25:07.045Z,66.90
2018-05-04T21:27:34.557Z,67.40
2018-05-04T21:30:02.870Z,67.90
2018-05-04T21:32:30.382Z,67.70
2018-05-04T21:34:58.675Z,68.30
2018-05-04T21:37:26.961Z,68.20
2018-05-04T21:39:54.487Z,68.20
2018-05-04T21:42:22.008Z,68.60
2018-05-04T21:44:49.606Z,68.70
2018-05-04T21:47:17.090Z,68.90
2018-05-04T21:49:45.365Z,69.10
2018-05-04T21:52:13.653Z,69.20
2018-05-04T21:54:41.169Z,69.10
2018-05-04T21:57:08.705Z,69.10
2018-05-04T21:59:36.237Z,69.10
2018-05-04T22:02:03.761Z,69.10
2018-05-04T22:04:32.045Z,69.30
2018-05-04T22:07:00.342Z,69.50
2018-05-04T22:09:27.873Z,69.40
2018-05-04T22:11:56.177Z,69.50
2018-05-04T22:14:23.689Z,69.50
2018-05-04T22:16:51.211Z,69.60
2018-05-04T22:19:18.725Z,69.70
2018-05-04T22:21:47.764Z,69.80
2018-05-04T22:24:15.367Z,69.80
2018-05-04T22:26:43.589Z,70.20
2018-05-04T22:29:11.126Z,70.10
2018-05-04T22:31:39.411Z,70.10
2018-05-04T22:34:07.694Z,70.20
2018-05-04T22:36:35.213Z,70.00
2018-05-04T22:39:02.733Z,70.10
2018-05-04T22:41:30.253Z,70.10
2018-05-04T22:43:58.542Z,70.30
2018-05-04T22:46:26.821Z,71.20
2018-05-04T22:48:54.351Z,70.30
2018-05-04T22:51:22.641Z,70.80
2018-05-04T22:53:50.934Z,70.20
2018-05-04T22:56:19.214Z,70.30
2018-05-04T22:58:46.737Z,70.20
2018-05-04T23:01:14.258Z,70.00
2018-05-04T23:03:41.786Z,70.10
2018-05-04T23:06:09.321Z,70.10
2018-05-04T23:08:37.606Z,70.60
2018-05-04T23:11:05.916Z,70.70
2018-05-04T23:13:33.439Z,70.60
2018-05-04T23:16:00.960Z,70.40
2018-05-04T23:18:28.482Z,70.00
2018-05-04T23:20:56.010Z,69.70
2018-05-04T23:23:24.307Z,69.40
2018-05-04T23:25:52.590Z,70.30
2018-05-04T23:28:20.114Z,71.10
2018-05-04T23:30:47.641Z,70.70
2018-05-04T23:33:15.154Z,70.80
2018-05-04T23:35:43.466Z,71.10
2018-05-04T23:38:10.979Z,71.00
2018-05-04T23:40:39.266Z,71.30
2018-05-04T23:43:07.550Z,71.60
2018-05-04T23:45:35.829Z,72.50
2018-05-04T23:48:04.118Z,73.10
2018-05-04T23:50:31.641Z,73.00
2018-05-04T23:53:00.667Z,73.40
2018-05-04T23:55:28.189Z,73.50
2018-05-04T23:57:55.715Z,73.70
